sensor_id;sensor_type;location;lat;lon;timestamp;P1;durP1;ratioP1;P2;durP2;ratioP2
47219;SDS011;32961;51.936;4.788;2024-02-21T00:01:04;15.27;;;2.88;;
47219;SDS011;32961;51.936;4.788;2024-02-21T00:03:32;14.27;;;2.70;;
47219;SDS011;32961;51.936;4.788;2024-02-21T00:06:00;23.52;;;4.13;;
47219;SDS011;32961;51.936;4.788;2024-02-21T00:08:28;19.55;;;2.88;;
47219;SDS011;32961;51.936;4.788;2024-02-21T00:10:58;12.32;;;3.15;;
47219;SDS011;32961;51.936;4.788;2024-02-21T00:13:26;12.65;;;2.92;;
47219;SDS011;32961;51.936;4.788;2024-02-21T00:15:54;16.15;;;2.97;;
47219;SDS011;32961;51.936;4.788;2024-02-21T00:18:22;14.43;;;3.97;;
47219;SDS011;32961;51.936;4.788;2024-02-21T00:20:55;11.48;;;2.92;;
47219;SDS011;32961;51.936;4.788;2024-02-21T00:23:23;11.50;;;2.58;;
47219;SDS011;32961;51.936;4.788;2024-02-21T00:25:51;16.75;;;3.08;;
47219;SDS011;32961;51.936;4.788;2024-02-21T00:28:20;10.32;;;2.60;;
47219;SDS011;32961;51.936;4.788;2024-02-21T00:30:48;14.57;;;3.70;;
47219;SDS011;32961;51.936;4.788;2024-02-21T00:33:19;15.77;;;3.20;;
47219;SDS011;32961;51.936;4.788;2024-02-21T00:35:47;10.95;;;3.08;;
47219;SDS011;32961;51.936;4.788;2024-02-21T00:38:15;17.88;;;2.97;;
47219;SDS011;32961;51.936;4.788;2024-02-21T00:40:43;14.63;;;3.53;;
47219;SDS011;32961;51.936;4.788;2024-02-21T00:43:11;8.93;;;3.13;;
47219;SDS011;32961;51.936;4.788;2024-02-21T00:45:40;14.73;;;3.05;;
47219;SDS011;32961;51.936;4.788;2024-02-21T00:48:08;11.40;;;2.67;;
47219;SDS011;32961;51.936;4.788;2024-02-21T00:50:36;12.75;;;3.38;;
47219;SDS011;32961;51.936;4.788;2024-02-21T00:53:04;13.82;;;3.55;;
47219;SDS011;32961;51.936;4.788;2024-02-21T00:55:32;14.18;;;2.90;;
47219;SDS011;32961;51.936;4.788;2024-02-21T00:58:00;13.27;;;2.88;;
47219;SDS011;32961;51.936;4.788;2024-02-21T01:00:28;15.48;;;3.95;;
47219;SDS011;32961;51.936;4.788;2024-02-21T01:02:57;13.55;;;4.18;;
47219;SDS011;32961;51.936;4.788;2024-02-21T01:05:25;16.45;;;3.40;;
47219;SDS011;32961;51.936;4.788;2024-02-21T01:07:54;11.13;;;2.75;;
47219;SDS011;32961;51.936;4.788;2024-02-21T01:10:22;12.63;;;3.17;;
47219;SDS011;32961;51.936;4.788;2024-02-21T01:12:50;17.17;;;3.63;;
47219;SDS011;32961;51.936;4.788;2024-02-21T01:15:18;10.80;;;2.75;;
47219;SDS011;32961;51.936;4.788;2024-02-21T01:17:46;10.50;;;2.65;;
47219;SDS011;32961;51.936;4.788;2024-02-21T01:20:17;16.70;;;3.55;;
47219;SDS011;32961;51.936;4.788;2024-02-21T01:22:45;10.30;;;3.05;;
47219;SDS011;32961;51.936;4.788;2024-02-21T01:25:13;12.57;;;2.92;;
47219;SDS011;32961;51.936;4.788;2024-02-21T01:27:41;18.80;;;3.10;;
47219;SDS011;32961;51.936;4.788;2024-02-21T01:30:09;16.08;;;3.67;;
47219;SDS011;32961;51.936;4.788;2024-02-21T01:32:38;16.77;;;5.13;;
47219;SDS011;32961;51.936;4.788;2024-02-21T01:35:06;15.98;;;3.53;;
47219;SDS011;32961;51.936;4.788;2024-02-21T01:37:36;20.58;;;3.78;;
47219;SDS011;32961;51.936;4.788;2024-02-21T01:40:04;16.30;;;3.10;;
47219;SDS011;32961;51.936;4.788;2024-02-21T01:42:33;16.73;;;3.20;;
47219;SDS011;32961;51.936;4.788;2024-02-21T01:45:06;18.17;;;3.83;;
47219;SDS011;32961;51.936;4.788;2024-02-21T01:47:34;13.55;;;2.72;;
47219;SDS011;32961;51.936;4.788;2024-02-21T01:50:02;9.00;;;2.83;;
47219;SDS011;32961;51.936;4.788;2024-02-21T01:52:31;14.35;;;3.13;;
47219;SDS011;32961;51.936;4.788;2024-02-21T01:55:02;17.88;;;2.83;;
47219;SDS011;32961;51.936;4.788;2024-02-21T01:57:31;13.88;;;2.97;;
47219;SDS011;32961;51.936;4.788;2024-02-21T01:59:59;15.30;;;3.72;;
47219;SDS011;32961;51.936;4.788;2024-02-21T02:02:27;16.67;;;3.95;;
47219;SDS011;32961;51.936;4.788;2024-02-21T02:04:55;14.13;;;4.10;;
47219;SDS011;32961;51.936;4.788;2024-02-21T02:07:24;19.10;;;3.92;;
47219;SDS011;32961;51.936;4.788;2024-02-21T02:09:52;10.77;;;4.03;;
47219;SDS011;32961;51.936;4.788;2024-02-21T02:12:21;15.73;;;3.97;;
47219;SDS011;32961;51.936;4.788;2024-02-21T02:14:57;14.10;;;3.10;;
47219;SDS011;32961;51.936;4.788;2024-02-21T02:17:25;10.45;;;2.90;;
47219;SDS011;32961;51.936;4.788;2024-02-21T02:19:53;12.55;;;2.67;;
47219;SDS011;32961;51.936;4.788;2024-02-21T02:22:22;16.17;;;2.80;;
47219;SDS011;32961;51.936;4.788;2024-02-21T02:24:54;10.23;;;3.00;;
47219;SDS011;32961;51.936;4.788;2024-02-21T02:27:22;12.48;;;3.47;;
47219;SDS011;32961;51.936;4.788;2024-02-21T02:29:50;10.15;;;3.10;;
47219;SDS011;32961;51.936;4.788;2024-02-21T02:32:19;11.80;;;3.47;;
47219;SDS011;32961;51.936;4.788;2024-02-21T02:34:46;10.50;;;3.47;;
47219;SDS011;32961;51.936;4.788;2024-02-21T02:37:14;14.25;;;3.22;;
47219;SDS011;32961;51.936;4.788;2024-02-21T02:39:42;13.95;;;3.03;;
47219;SDS011;32961;51.936;4.788;2024-02-21T02:42:11;13.32;;;3.33;;
47219;SDS011;32961;51.936;4.788;2024-02-21T02:44:39;11.60;;;3.13;;
47219;SDS011;32961;51.936;4.788;2024-02-21T02:47:08;13.07;;;3.35;;
47219;SDS011;32961;51.936;4.788;2024-02-21T02:49:36;12.63;;;3.63;;
47219;SDS011;32961;51.936;4.788;2024-02-21T02:52:04;14.93;;;3.42;;
47219;SDS011;32961;51.936;4.788;2024-02-21T02:54:32;9.73;;;3.15;;
47219;SDS011;32961;51.936;4.788;2024-02-21T02:57:00;10.23;;;3.13;;
47219;SDS011;32961;51.936;4.788;2024-02-21T02:59:31;10.48;;;2.85;;
47219;SDS011;32961;51.936;4.788;2024-02-21T03:01:59;20.55;;;3.20;;
47219;SDS011;32961;51.936;4.788;2024-02-21T03:04:27;13.50;;;3.63;;
47219;SDS011;32961;51.936;4.788;2024-02-21T03:06:54;12.35;;;3.38;;
47219;SDS011;32961;51.936;4.788;2024-02-21T03:09:22;13.65;;;3.58;;
47219;SDS011;32961;51.936;4.788;2024-02-21T03:11:50;13.73;;;3.17;;
47219;SDS011;32961;51.936;4.788;2024-02-21T03:14:18;10.38;;;3.33;;
47219;SDS011;32961;51.936;4.788;2024-02-21T03:16:48;11.63;;;3.30;;
47219;SDS011;32961;51.936;4.788;2024-02-21T03:19:18;10.35;;;2.85;;
47219;SDS011;32961;51.936;4.788;2024-02-21T03:21:46;13.07;;;3.42;;
47219;SDS011;32961;51.936;4.788;2024-02-21T03:24:14;11.68;;;3.35;;
47219;SDS011;32961;51.936;4.788;2024-02-21T03:26:42;13.15;;;4.47;;
47219;SDS011;32961;51.936;4.788;2024-02-21T03:29:10;16.27;;;3.28;;
47219;SDS011;32961;51.936;4.788;2024-02-21T03:31:38;12.35;;;3.13;;
47219;SDS011;32961;51.936;4.788;2024-02-21T03:34:10;8.50;;;3.60;;
47219;SDS011;32961;51.936;4.788;2024-02-21T03:36:38;11.73;;;3.63;;
47219;SDS011;32961;51.936;4.788;2024-02-21T03:39:06;10.88;;;3.72;;
47219;SDS011;32961;51.936;4.788;2024-02-21T03:41:35;9.13;;;3.42;;
47219;SDS011;32961;51.936;4.788;2024-02-21T03:44:03;10.80;;;3.53;;
47219;SDS011;32961;51.936;4.788;2024-02-21T03:46:31;14.00;;;5.95;;
47219;SDS011;32961;51.936;4.788;2024-02-21T03:48:59;7.82;;;3.83;;
47219;SDS011;32961;51.936;4.788;2024-02-21T03:51:29;8.85;;;4.35;;
47219;SDS011;32961;51.936;4.788;2024-02-21T03:53:56;11.43;;;4.57;;
47219;SDS011;32961;51.936;4.788;2024-02-21T03:56:24;10.30;;;4.57;;
47219;SDS011;32961;51.936;4.788;2024-02-21T03:58:52;13.65;;;4.82;;
47219;SDS011;32961;51.936;4.788;2024-02-21T04:01:20;12.63;;;4.78;;
47219;SDS011;32961;51.936;4.788;2024-02-21T04:03:48;11.70;;;4.38;;
47219;SDS011;32961;51.936;4.788;2024-02-21T04:06:16;10.88;;;4.30;;
47219;SDS011;32961;51.936;4.788;2024-02-21T04:08:45;12.30;;;4.82;;
47219;SDS011;32961;51.936;4.788;2024-02-21T04:11:13;10.88;;;4.40;;
47219;SDS011;32961;51.936;4.788;2024-02-21T04:13:41;14.18;;;6.20;;
47219;SDS011;32961;51.936;4.788;2024-02-21T04:16:09;18.42;;;6.22;;
47219;SDS011;32961;51.936;4.788;2024-02-21T04:18:36;9.52;;;5.38;;
47219;SDS011;32961;51.936;4.788;2024-02-21T04:21:04;11.38;;;4.85;;
47219;SDS011;32961;51.936;4.788;2024-02-21T04:23:32;17.30;;;5.03;;
